sensor_id;sensor_type;location;lat;lon;timestamp;P1;durP1;ratioP1;P2;durP2;ratioP2
46084;SDS011;31823;47.032;8.310;2023-05-19T00:01:26;11.35;;;6.00;;
46084;SDS011;31823;47.032;8.310;2023-05-19T00:03:53;8.65;;;6.07;;
46084;SDS011;31823;47.032;8.310;2023-05-19T00:06:25;8.52;;;6.05;;
46084;SDS011;31823;47.032;8.310;2023-05-19T00:08:56;8.30;;;5.85;;
46084;SDS011;31823;47.032;8.310;2023-05-19T00:11:22;8.98;;;6.05;;
46084;SDS011;31823;47.032;8.310;2023-05-19T00:13:48;9.55;;;6.57;;
46084;SDS011;31823;47.032;8.310;2023-05-19T00:16:15;9.98;;;6.90;;
46084;SDS011;31823;47.032;8.310;2023-05-19T00:18:41;8.55;;;6.00;;
46084;SDS011;31823;47.032;8.310;2023-05-19T00:21:07;8.55;;;6.53;;
46084;SDS011;31823;47.032;8.310;2023-05-19T00:23:33;10.25;;;7.20;;
46084;SDS011;31823;47.032;8.310;2023-05-19T00:25:58;11.00;;;6.07;;
46084;SDS011;31823;47.032;8.310;2023-05-19T00:28:24;7.05;;;5.53;;
46084;SDS011;31823;47.032;8.310;2023-05-19T00:30:50;12.20;;;6.25;;
46084;SDS011;31823;47.032;8.310;2023-05-19T00:33:16;10.70;;;6.55;;
46084;SDS011;31823;47.032;8.310;2023-05-19T00:35:41;10.07;;;6.25;;
46084;SDS011;31823;47.032;8.310;2023-05-19T00:38:07;9.15;;;6.82;;
46084;SDS011;31823;47.032;8.310;2023-05-19T00:40:33;10.73;;;6.45;;
46084;SDS011;31823;47.032;8.310;2023-05-19T00:43:00;8.95;;;6.18;;
46084;SDS011;31823;47.032;8.310;2023-05-19T00:45:26;8.02;;;5.55;;
46084;SDS011;31823;47.032;8.310;2023-05-19T00:47:53;7.63;;;5.68;;
46084;SDS011;31823;47.032;8.310;2023-05-19T00:50:18;10.30;;;6.50;;
46084;SDS011;31823;47.032;8.310;2023-05-19T00:52:44;8.90;;;6.55;;
46084;SDS011;31823;47.032;8.310;2023-05-19T00:55:09;8.70;;;5.55;;
46084;SDS011;31823;47.032;8.310;2023-05-19T00:57:36;7.90;;;5.72;;
46084;SDS011;31823;47.032;8.310;2023-05-19T01:00:02;7.90;;;5.97;;
46084;SDS011;31823;47.032;8.310;2023-05-19T01:02:29;11.02;;;6.63;;
46084;SDS011;31823;47.032;8.310;2023-05-19T01:04:56;9.55;;;6.75;;
46084;SDS011;31823;47.032;8.310;2023-05-19T01:07:22;9.90;;;6.22;;
46084;SDS011;31823;47.032;8.310;2023-05-19T01:09:49;11.50;;;6.05;;
46084;SDS011;31823;47.032;8.310;2023-05-19T01:12:15;8.88;;;6.03;;
46084;SDS011;31823;47.032;8.310;2023-05-19T01:14:41;8.80;;;6.20;;
46084;SDS011;31823;47.032;8.310;2023-05-19T01:17:13;8.68;;;5.82;;
46084;SDS011;31823;47.032;8.310;2023-05-19T01:25:18;9.00;;;6.30;;
46084;SDS011;31823;47.032;8.310;2023-05-19T01:28:14;10.02;;;6.15;;
46084;SDS011;31823;47.032;8.310;2023-05-19T01:31:03;9.88;;;6.07;;
46084;SDS011;31823;47.032;8.310;2023-05-19T01:33:31;9.70;;;6.07;;
46084;SDS011;31823;47.032;8.310;2023-05-19T01:35:58;13.43;;;6.68;;
46084;SDS011;31823;47.032;8.310;2023-05-19T01:38:26;9.48;;;6.45;;
46084;SDS011;31823;47.032;8.310;2023-05-19T01:40:53;8.27;;;6.47;;
46084;SDS011;31823;47.032;8.310;2023-05-19T01:43:22;9.35;;;6.18;;
46084;SDS011;31823;47.032;8.310;2023-05-19T01:45:50;8.32;;;5.85;;
46084;SDS011;31823;47.032;8.310;2023-05-19T01:48:16;11.95;;;6.82;;
46084;SDS011;31823;47.032;8.310;2023-05-19T01:50:42;8.60;;;6.35;;
46084;SDS011;31823;47.032;8.310;2023-05-19T01:53:08;8.93;;;6.15;;
46084;SDS011;31823;47.032;8.310;2023-05-19T01:55:35;9.80;;;6.60;;
46084;SDS011;31823;47.032;8.310;2023-05-19T02:00:53;11.52;;;5.97;;
46084;SDS011;31823;47.032;8.310;2023-05-19T02:09:33;7.45;;;5.40;;
46084;SDS011;31823;47.032;8.310;2023-05-19T02:12:19;9.35;;;5.32;;
46084;SDS011;31823;47.032;8.310;2023-05-19T02:15:20;9.40;;;5.70;;
46084;SDS011;31823;47.032;8.310;2023-05-19T02:17:54;7.15;;;5.35;;
46084;SDS011;31823;47.032;8.310;2023-05-19T02:20:21;10.68;;;5.40;;
46084;SDS011;31823;47.032;8.310;2023-05-19T02:22:47;8.00;;;5.43;;
46084;SDS011;31823;47.032;8.310;2023-05-19T02:25:13;9.68;;;5.63;;
46084;SDS011;31823;47.032;8.310;2023-05-19T02:27:39;7.38;;;5.47;;
46084;SDS011;31823;47.032;8.310;2023-05-19T02:30:05;8.75;;;5.18;;
46084;SDS011;31823;47.032;8.310;2023-05-19T02:32:33;11.27;;;5.53;;
46084;SDS011;31823;47.032;8.310;2023-05-19T02:34:58;9.88;;;5.53;;
46084;SDS011;31823;47.032;8.310;2023-05-19T02:37:24;10.10;;;5.28;;
46084;SDS011;31823;47.032;8.310;2023-05-19T02:39:52;7.90;;;4.93;;
46084;SDS011;31823;47.032;8.310;2023-05-19T02:42:18;12.32;;;5.35;;
46084;SDS011;31823;47.032;8.310;2023-05-19T02:44:44;7.30;;;5.20;;
46084;SDS011;31823;47.032;8.310;2023-05-19T02:47:10;7.45;;;4.75;;
46084;SDS011;31823;47.032;8.310;2023-05-19T02:49:36;8.35;;;5.32;;
46084;SDS011;31823;47.032;8.310;2023-05-19T02:52:05;9.60;;;5.22;;
46084;SDS011;31823;47.032;8.310;2023-05-19T02:54:31;9.80;;;5.35;;
46084;SDS011;31823;47.032;8.310;2023-05-19T02:56:57;7.63;;;5.40;;
46084;SDS011;31823;47.032;8.310;2023-05-19T02:59:23;10.07;;;5.07;;
46084;SDS011;31823;47.032;8.310;2023-05-19T03:01:51;9.00;;;5.25;;
46084;SDS011;31823;47.032;8.310;2023-05-19T03:04:19;8.73;;;5.35;;
46084;SDS011;31823;47.032;8.310;2023-05-19T03:06:45;8.13;;;5.57;;
46084;SDS011;31823;47.032;8.310;2023-05-19T03:09:11;6.07;;;4.72;;
46084;SDS011;31823;47.032;8.310;2023-05-19T03:11:37;8.43;;;6.07;;
46084;SDS011;31823;47.032;8.310;2023-05-19T03:14:03;8.88;;;5.70;;
46084;SDS011;31823;47.032;8.310;2023-05-19T03:16:29;6.50;;;5.20;;
46084;SDS011;31823;47.032;8.310;2023-05-19T03:18:55;8.40;;;5.22;;
46084;SDS011;31823;47.032;8.310;2023-05-19T03:21:21;8.15;;;5.20;;
46084;SDS011;31823;47.032;8.310;2023-05-19T03:23:46;8.13;;;5.38;;
46084;SDS011;31823;47.032;8.310;2023-05-19T03:26:12;10.38;;;6.60;;
46084;SDS011;31823;47.032;8.310;2023-05-19T03:28:37;7.85;;;5.60;;
46084;SDS011;31823;47.032;8.310;2023-05-19T03:31:03;11.50;;;5.75;;
46084;SDS011;31823;47.032;8.310;2023-05-19T03:33:29;8.20;;;5.60;;
46084;SDS011;31823;47.032;8.310;2023-05-19T03:35:57;11.27;;;5.75;;
46084;SDS011;31823;47.032;8.310;2023-05-19T03:38:23;7.78;;;5.18;;
46084;SDS011;31823;47.032;8.310;2023-05-19T03:40:49;11.93;;;5.68;;
46084;SDS011;31823;47.032;8.310;2023-05-19T03:43:14;9.75;;;5.40;;
46084;SDS011;31823;47.032;8.310;2023-05-19T03:45:40;9.43;;;5.97;;
46084;SDS011;31823;47.032;8.310;2023-05-19T03:48:06;7.72;;;4.82;;
46084;SDS011;31823;47.032;8.310;2023-05-19T03:50:31;9.52;;;5.32;;
46084;SDS011;31823;47.032;8.310;2023-05-19T03:52:57;7.88;;;5.65;;
46084;SDS011;31823;47.032;8.310;2023-05-19T03:55:23;7.90;;;5.80;;
46084;SDS011;31823;47.032;8.310;2023-05-19T03:57:49;6.63;;;5.63;;
46084;SDS011;31823;47.032;8.310;2023-05-19T04:00:16;8.00;;;5.28;;
46084;SDS011;31823;47.032;8.310;2023-05-19T04:02:42;13.50;;;5.72;;
46084;SDS011;31823;47.032;8.310;2023-05-19T04:05:08;8.18;;;5.40;;
46084;SDS011;31823;47.032;8.310;2023-05-19T04:07:34;10.85;;;6.10;;
46084;SDS011;31823;47.032;8.310;2023-05-19T04:10:02;8.57;;;5.28;;
46084;SDS011;31823;47.032;8.310;2023-05-19T04:12:30;10.32;;;5.43;;
46084;SDS011;31823;47.032;8.310;2023-05-19T04:14:56;10.93;;;5.40;;
46084;SDS011;31823;47.032;8.310;2023-05-19T04:17:22;7.88;;;5.28;;
46084;SDS011;31823;47.032;8.310;2023-05-19T04:19:50;10.15;;;5.60;;
46084;SDS011;31823;47.032;8.310;2023-05-19T04:22:19;7.07;;;5.07;;
46084;SDS011;31823;47.032;8.310;2023-05-19T04:24:45;7.68;;;4.70;;
46084;SDS011;31823;47.032;8.310;2023-05-19T04:27:12;7.53;;;4.88;;
46084;SDS011;31823;47.032;8.310;2023-05-19T04:29:37;8.77;;;4.95;;
46084;SDS011;31823;47.032;8.310;2023-05-19T04:32:04;8.10;;;5.45;;
46084;SDS011;31823;47.032;8.310;2023-05-19T04:34:32;11.13;;;4.95;;
46084;SDS011;31823;47.032;8.310;2023-05-19T04:36:59;8.02;;;5.22;;
46084;SDS011;31823;47.032;8.310;2023-05-19T04:39:25;12.32;;;5.18;;
46084;SDS011;31823;47.032;8.310;2023-05-19T04:41:51;13.63;;;5.30;;
46084;SDS011;31823;47.032;8.310;2023-05-19T04:44:18;17.08;;;5.43;;
46084;SDS011;31823;47.032;8.310;2023-05-19T04:46:44;7.25;;;4.68;;
46084;SDS011;31823;47.032;8.310;2023-05-19T04:49:10;8.60;;;5.00;;
46084;SDS011;31823;47.032;8.310;2023-05-19T04:51:38;9.90;;;4.88;;
46084;SDS011;31823;47.032;8.310;2023-05-19T04:54:08;6.93;;;4.78;;
46084;SDS011;31823;47.032;8.310;2023-05-19T04:56:34;7.38;;;5.13;;
46084;SDS011;31823;47.032;8.310;2023-05-19T04:59:00;8.15;;;4.95;;
46084;SDS011;31823;47.032;8.310;2023-05-19T05:01:26;8.52;;;5.32;;
46084;SDS011;31823;47.032;8.310;2023-05-19T05:03:51;8.25;;;4.93;;
46084;SDS011;31823;47.032;8.310;2023-05-19T05:06:19;13.20;;;4.88;;
46084;SDS011;31823;47.032;8.310;2023-05-19T05:08:47;8.10;;;4.50;;
46084;SDS011;31823;47.032;8.310;2023-05-19T05:11:13;7.30;;;4.60;;
46084;SDS011;31823;47.032;8.310;2023-05-19T05:13:39;10.55;;;5.07;;
46084;SDS011;31823;47.032;8.310;2023-05-19T05:16:05;6.93;;;4.32;;
46084;SDS011;31823;47.032;8.310;2023-05-19T05:18:32;7.22;;;4.63;;
46084;SDS011;31823;47.032;8.310;2023-05-19T05:20:58;8.57;;;5.10;;
46084;SDS011;31823;47.032;8.310;2023-05-19T05:23:24;8.13;;;5.22;;
46084;SDS011;31823;47.032;8.310;2023-05-19T05:25:50;9.43;;;4.70;;
46084;SDS011;31823;47.032;8.310;2023-05-19T05:28:16;8.35;;;5.03;;
46084;SDS011;31823;47.032;8.310;2023-05-19T05:30:41;7.95;;;5.57;;
46084;SDS011;31823;47.032;8.310;2023-05-19T05:33:08;8.55;;;5.22;;
46084;SDS011;31823;47.032;8.310;2023-05-19T05:35:34;7.43;;;4.72;;
46084;SDS011;31823;47.032;8.310;2023-05-19T05:38:00;7.32;;;5.15;;
46084;SDS011;31823;47.032;8.310;2023-05-19T05:40:26;7.38;;;4.72;;
46084;SDS011;31823;47.032;8.310;2023-05-19T05:42:52;8.00;;;5.22;;
46084;SDS011;31823;47.032;8.310;2023-05-19T05:45:20;8.63;;;5.63;;
46084;SDS011;31823;47.032;8.310;2023-05-19T05:47:49;7.35;;;5.38;;
46084;SDS011;31823;47.032;8.310;2023-05-19T05:50:15;7.57;;;4.65;;
46084;SDS011;31823;47.032;8.310;2023-05-19T05:52:41;7.03;;;5.50;;
46084;SDS011;31823;47.032;8.310;2023-05-19T05:55:10;8.25;;;5.13;;
46084;SDS011;31823;47.032;8.310;2023-05-19T05:57:37;8.60;;;4.65;;
46084;SDS011;31823;47.032;8.310;2023-05-19T06:00:06;8.65;;;4.93;;
46084;SDS011;31823;47.032;8.310;2023-05-19T06:02:40;10.32;;;4.55;;
46084;SDS011;31823;47.032;8.310;2023-05-19T06:05:07;7.80;;;4.72;;
46084;SDS011;31823;47.032;8.310;2023-05-19T06:07:36;7.57;;;4.85;;
46084;SDS011;31823;47.032;8.310;2023-05-19T06:10:05;7.45;;;4.65;;
46084;SDS011;31823;47.032;8.310;2023-05-19T06:12:31;8.20;;;5.10;;
46084;SDS011;31823;47.032;8.310;2023-05-19T06:14:58;8.15;;;4.60;;
46084;SDS011;31823;47.032;8.310;2023-05-19T06:17:28;6.95;;;4.03;;
46084;SDS011;31823;47.032;8.310;2023-05-19T06:19:58;6.53;;;4.70;;
46084;SDS011;31823;47.032;8.310;2023-05-19T06:22:23;8.30;;;4.70;;
46084;SDS011;31823;47.032;8.310;2023-05-19T06:24:49;6.68;;;4.75;;
46084;SDS011;31823;47.032;8.310;2023-05-19T06:27:15;11.15;;;4.10;;
46084;SDS011;31823;47.032;8.310;2023-05-19T06:29:40;9.70;;;5.13;;
46084;SDS011;31823;47.032;8.310;2023-05-19T06:32:07;6.88;;;4.93;;
46084;SDS011;31823;47.032;8.310;2023-05-19T06:34:32;9.32;;;5.35;;
46084;SDS011;31823;47.032;8.310;2023-05-19T06:36:58;7.47;;;4.60;;
46084;SDS011;31823;47.032;8.310;2023-05-19T06:39:26;8.07;;;5.10;;
46084;SDS011;31823;47.032;8.310;2023-05-19T06:41:51;9.00;;;4.78;;
46084;SDS011;31823;47.032;8.310;2023-05-19T06:44:17;11.75;;;5.15;;
46084;SDS011;31823;47.032;8.310;2023-05-19T06:46:42;6.55;;;4.90;;
46084;SDS011;31823;47.032;8.310;2023-05-19T06:49:09;9.75;;;5.75;;
46084;SDS011;31823;47.032;8.310;2023-05-19T06:51:35;8.35;;;4.85;;
46084;SDS011;31823;47.032;8.310;2023-05-19T06:54:00;6.53;;;5.00;;
46084;SDS011;31823;47.032;8.310;2023-05-19T06:56:26;6.55;;;4.82;;
46084;SDS011;31823;47.032;8.310;2023-05-19T06:58:52;7.40;;;5.20;;
46084;SDS011;31823;47.032;8.310;2023-05-19T07:01:18;6.60;;;4.22;;
46084;SDS011;31823;47.032;8.310;2023-05-19T07:03:43;6.57;;;5.20;;
46084;SDS011;31823;47.032;8.310;2023-05-19T07:06:09;8.38;;;5.50;;
46084;SDS011;31823;47.032;8.310;2023-05-19T07:08:34;9.23;;;5.75;;
46084;SDS011;31823;47.032;8.310;2023-05-19T07:11:01;9.13;;;5.00;;
46084;SDS011;31823;47.032;8.310;2023-05-19T07:13:26;7.85;;;5.20;;
46084;SDS011;31823;47.032;8.310;2023-05-19T07:15:52;8.73;;;5.38;;
46084;SDS011;31823;47.032;8.310;2023-05-19T07:18:20;9.55;;;5.70;;
46084;SDS011;31823;47.032;8.310;2023-05-19T07:20:46;9.00;;;5.70;;
46084;SDS011;31823;47.032;8.310;2023-05-19T07:23:11;7.28;;;5.13;;
46084;SDS011;31823;47.032;8.310;2023-05-19T07:25:37;7.95;;;5.07;;
46084;SDS011;31823;47.032;8.310;2023-05-19T07:28:02;12.60;;;6.05;;
46084;SDS011;31823;47.032;8.310;2023-05-19T07:30:28;6.57;;;5.25;;
46084;SDS011;31823;47.032;8.310;2023-05-19T07:32:54;6.13;;;4.88;;
46084;SDS011;31823;47.032;8.310;2023-05-19T07:35:20;6.32;;;5.13;;
46084;SDS011;31823;47.032;8.310;2023-05-19T07:37:49;9.45;;;5.72;;
46084;SDS011;31823;47.032;8.310;2023-05-19T07:40:16;6.88;;;5.05;;
46084;SDS011;31823;47.032;8.310;2023-05-19T07:42:42;7.13;;;5.20;;
46084;SDS011;31823;47.032;8.310;2023-05-19T07:45:08;7.40;;;5.30;;
46084;SDS011;31823;47.032;8.310;2023-05-19T07:47:34;7.47;;;5.68;;
46084;SDS011;31823;47.032;8.310;2023-05-19T07:50:00;10.50;;;5.50;;
46084;SDS011;31823;47.032;8.310;2023-05-19T07:52:26;7.45;;;5.32;;
46084;SDS011;31823;47.032;8.310;2023-05-19T07:54:51;8.50;;;5.45;;
46084;SDS011;31823;47.032;8.310;2023-05-19T07:57:17;11.18;;;5.88;;
46084;SDS011;31823;47.032;8.310;2023-05-19T07:59:44;7.35;;;5.25;;
46084;SDS011;31823;47.032;8.310;2023-05-19T08:02:09;7.13;;;5.32;;
46084;SDS011;31823;47.032;8.310;2023-05-19T08:04:35;12.02;;;6.80;;
46084;SDS011;31823;47.032;8.310;2023-05-19T08:07:01;7.25;;;5.57;;
46084;SDS011;31823;47.032;8.310;2023-05-19T08:09:26;7.68;;;5.97;;
46084;SDS011;31823;47.032;8.310;2023-05-19T08:11:52;11.45;;;5.90;;
46084;SDS011;31823;47.032;8.310;2023-05-19T08:14:17;7.70;;;5.65;;
46084;SDS011;31823;47.032;8.310;2023-05-19T08:16:44;10.38;;;6.78;;
46084;SDS011;31823;47.032;8.310;2023-05-19T08:19:10;9.52;;;5.40;;
46084;SDS011;31823;47.032;8.310;2023-05-19T08:21:35;10.68;;;5.82;;
46084;SDS011;31823;47.032;8.310;2023-05-19T08:24:03;9.98;;;5.82;;
46084;SDS011;31823;47.032;8.310;2023-05-19T08:26:28;9.38;;;5.53;;
46084;SDS011;31823;47.032;8.310;2023-05-19T08:28:54;8.57;;;6.43;;
46084;SDS011;31823;47.032;8.310;2023-05-19T08:31:20;8.65;;;6.07;;
46084;SDS011;31823;47.032;8.310;2023-05-19T08:33:46;12.85;;;8.02;;
46084;SDS011;31823;47.032;8.310;2023-05-19T08:36:12;10.65;;;6.40;;
46084;SDS011;31823;47.032;8.310;2023-05-19T08:38:37;10.55;;;5.65;;
46084;SDS011;31823;47.032;8.310;2023-05-19T08:41:03;8.82;;;6.50;;
46084;SDS011;31823;47.032;8.310;2023-05-19T08:43:29;7.90;;;5.70;;
46084;SDS011;31823;47.032;8.310;2023-05-19T08:45:55;7.15;;;5.13;;
46084;SDS011;31823;47.032;8.310;2023-05-19T08:48:23;11.05;;;6.00;;
46084;SDS011;31823;47.032;8.310;2023-05-19T08:50:57;9.80;;;6.35;;
46084;SDS011;31823;47.032;8.310;2023-05-19T08:53:30;9.52;;;6.07;;
46084;SDS011;31823;47.032;8.310;2023-05-19T08:56:03;8.05;;;6.18;;
46084;SDS011;31823;47.032;8.310;2023-05-19T08:58:35;10.10;;;6.13;;
46084;SDS011;31823;47.032;8.310;2023-05-19T09:01:04;10.07;;;6.45;;
46084;SDS011;31823;47.032;8.310;2023-05-19T09:03:32;9.30;;;5.20;;
46084;SDS011;31823;47.032;8.310;2023-05-19T09:06:02;9.48;;;5.53;;
46084;SDS011;31823;47.032;8.310;2023-05-19T09:08:36;8.98;;;5.57;;
46084;SDS011;31823;47.032;8.310;2023-05-19T09:11:02;8.48;;;6.20;;
46084;SDS011;31823;47.032;8.310;2023-05-19T09:13:28;9.48;;;6.07;;
46084;SDS011;31823;47.032;8.310;2023-05-19T09:15:54;9.95;;;6.07;;
46084;SDS011;31823;47.032;8.310;2023-05-19T09:18:21;7.57;;;5.78;;
46084;SDS011;31823;47.032;8.310;2023-05-19T09:20:49;11.23;;;6.18;;
46084;SDS011;31823;47.032;8.310;2023-05-19T09:23:23;10.43;;;6.40;;
46084;SDS011;31823;47.032;8.310;2023-05-19T09:25:55;12.80;;;6.13;;
46084;SDS011;31823;47.032;8.310;2023-05-19T09:28:31;9.38;;;6.45;;
46084;SDS011;31823;47.032;8.310;2023-05-19T09:31:01;10.70;;;7.15;;
46084;SDS011;31823;47.032;8.310;2023-05-19T09:33:27;11.23;;;5.72;;
46084;SDS011;31823;47.032;8.310;2023-05-19T09:35:54;10.27;;;6.50;;
46084;SDS011;31823;47.032;8.310;2023-05-19T09:38:23;7.95;;;6.22;;
46084;SDS011;31823;47.032;8.310;2023-05-19T09:40:49;10.02;;;6.13;;
46084;SDS011;31823;47.032;8.310;2023-05-19T09:43:16;11.70;;;5.80;;
46084;SDS011;31823;47.032;8.310;2023-05-19T09:45:41;10.25;;;6.82;;
46084;SDS011;31823;47.032;8.310;2023-05-19T09:48:07;8.65;;;6.03;;
46084;SDS011;31823;47.032;8.310;2023-05-19T09:50:33;11.35;;;6.18;;
46084;SDS011;31823;47.032;8.310;2023-05-19T09:52:59;10.77;;;6.55;;
46084;SDS011;31823;47.032;8.310;2023-05-19T09:55:27;11.88;;;6.72;;
46084;SDS011;31823;47.032;8.310;2023-05-19T09:57:56;9.10;;;5.85;;
46084;SDS011;31823;47.032;8.310;2023-05-19T10:00:22;10.15;;;6.40;;
46084;SDS011;31823;47.032;8.310;2023-05-19T10:02:47;9.05;;;5.95;;
46084;SDS011;31823;47.032;8.310;2023-05-19T10:05:15;10.77;;;6.65;;
46084;SDS011;31823;47.032;8.310;2023-05-19T10:07:50;10.35;;;6.38;;
46084;SDS011;31823;47.032;8.310;2023-05-19T10:10:18;9.30;;;6.43;;
46084;SDS011;31823;47.032;8.310;2023-05-19T10:12:45;8.50;;;6.15;;
46084;SDS011;31823;47.032;8.310;2023-05-19T10:15:12;10.60;;;6.32;;
46084;SDS011;31823;47.032;8.310;2023-05-19T10:17:40;8.93;;;6.50;;
46084;SDS011;31823;47.032;8.310;2023-05-19T10:22:34;12.90;;;8.13;;
46084;SDS011;31823;47.032;8.310;2023-05-19T10:25:02;9.88;;;6.45;;
46084;SDS011;31823;47.032;8.310;2023-05-19T10:27:28;12.13;;;6.55;;
46084;SDS011;31823;47.032;8.310;2023-05-19T10:29:56;10.00;;;7.57;;
46084;SDS011;31823;47.032;8.310;2023-05-19T10:32:27;11.52;;;7.65;;
46084;SDS011;31823;47.032;8.310;2023-05-19T10:35:15;11.23;;;6.97;;
46084;SDS011;31823;47.032;8.310;2023-05-19T10:48:38;12.20;;;8.00;;
46084;SDS011;31823;47.032;8.310;2023-05-19T10:51:08;9.57;;;6.80;;
46084;SDS011;31823;47.032;8.310;2023-05-19T10:53:37;10.18;;;7.25;;
46084;SDS011;31823;47.032;8.310;2023-05-19T10:56:05;10.73;;;8.35;;
46084;SDS011;31823;47.032;8.310;2023-05-19T10:58:37;12.60;;;7.90;;
46084;SDS011;31823;47.032;8.310;2023-05-19T11:01:13;11.48;;;8.00;;
46084;SDS011;31823;47.032;8.310;2023-05-19T11:03:43;13.65;;;8.25;;
46084;SDS011;31823;47.032;8.310;2023-05-19T11:11:22;10.18;;;7.93;;
46084;SDS011;31823;47.032;8.310;2023-05-19T11:13:53;14.30;;;10.20;;
46084;SDS011;31823;47.032;8.310;2023-05-19T11:16:55;14.60;;;10.95;;
46084;SDS011;31823;47.032;8.310;2023-05-19T11:19:16;11.18;;;8.48;;
46084;SDS011;31823;47.032;8.310;2023-05-19T11:21:55;11.45;;;8.05;;
46084;SDS011;31823;47.032;8.310;2023-05-19T11:27:16;11.57;;;8.38;;
46084;SDS011;31823;47.032;8.310;2023-05-19T11:29:43;10.68;;;7.70;;
46084;SDS011;31823;47.032;8.310;2023-05-19T11:32:09;12.32;;;8.30;;
46084;SDS011;31823;47.032;8.310;2023-05-19T11:34:35;9.85;;;7.50;;
46084;SDS011;31823;47.032;8.310;2023-05-19T11:37:03;12.70;;;7.75;;
46084;SDS011;31823;47.032;8.310;2023-05-19T11:39:29;12.73;;;8.90;;
46084;SDS011;31823;47.032;8.310;2023-05-19T11:41:56;13.05;;;8.70;;
46084;SDS011;31823;47.032;8.310;2023-05-19T11:44:22;12.05;;;8.27;;
46084;SDS011;31823;47.032;8.310;2023-05-19T11:46:48;10.65;;;8.25;;
46084;SDS011;31823;47.032;8.310;2023-05-19T11:49:13;9.57;;;6.53;;
46084;SDS011;31823;47.032;8.310;2023-05-19T11:51:42;13.10;;;9.30;;
46084;SDS011;31823;47.032;8.310;2023-05-19T11:54:08;11.30;;;8.75;;
46084;SDS011;31823;47.032;8.310;2023-05-19T11:56:39;10.55;;;7.80;;
46084;SDS011;31823;47.032;8.310;2023-05-19T11:59:05;11.25;;;6.57;;
46084;SDS011;31823;47.032;8.310;2023-05-19T12:01:32;13.13;;;8.23;;
46084;SDS011;31823;47.032;8.310;2023-05-19T12:03:58;12.07;;;7.45;;
46084;SDS011;31823;47.032;8.310;2023-05-19T12:06:24;14.85;;;9.65;;
46084;SDS011;31823;47.032;8.310;2023-05-19T12:08:51;14.27;;;8.40;;
46084;SDS011;31823;47.032;8.310;2023-05-19T12:11:18;10.77;;;8.77;;
46084;SDS011;31823;47.032;8.310;2023-05-19T12:13:44;15.85;;;8.85;;
46084;SDS011;31823;47.032;8.310;2023-05-19T12:16:10;14.32;;;8.05;;
46084;SDS011;31823;47.032;8.310;2023-05-19T12:18:36;14.20;;;8.13;;
46084;SDS011;31823;47.032;8.310;2023-05-19T12:21:03;11.35;;;9.02;;
46084;SDS011;31823;47.032;8.310;2023-05-19T12:23:29;10.07;;;8.05;;
46084;SDS011;31823;47.032;8.310;2023-05-19T12:25:57;12.50;;;8.57;;
46084;SDS011;31823;47.032;8.310;2023-05-19T12:28:23;13.43;;;9.20;;
46084;SDS011;31823;47.032;8.310;2023-05-19T12:30:49;13.27;;;8.45;;
46084;SDS011;31823;47.032;8.310;2023-05-19T12:33:19;11.68;;;8.30;;
46084;SDS011;31823;47.032;8.310;2023-05-19T12:35:46;14.25;;;10.15;;
46084;SDS011;31823;47.032;8.310;2023-05-19T12:38:13;13.13;;;9.02;;
46084;SDS011;31823;47.032;8.310;2023-05-19T12:40:40;14.82;;;9.45;;
46084;SDS011;31823;47.032;8.310;2023-05-19T12:43:06;12.05;;;8.18;;
46084;SDS011;31823;47.032;8.310;2023-05-19T12:45:36;13.68;;;9.77;;
46084;SDS011;31823;47.032;8.310;2023-05-19T12:48:04;11.32;;;8.25;;
46084;SDS011;31823;47.032;8.310;2023-05-19T12:50:35;10.77;;;7.40;;
46084;SDS011;31823;47.032;8.310;2023-05-19T12:53:01;12.30;;;8.30;;
46084;SDS011;31823;47.032;8.310;2023-05-19T12:55:27;11.30;;;7.95;;
46084;SDS011;31823;47.032;8.310;2023-05-19T12:57:53;13.95;;;9.27;;
46084;SDS011;31823;47.032;8.310;2023-05-19T13:00:21;9.52;;;6.63;;
46084;SDS011;31823;47.032;8.310;2023-05-19T13:02:55;10.00;;;5.68;;
46084;SDS011;31823;47.032;8.310;2023-05-19T13:05:21;10.07;;;6.65;;
46084;SDS011;31823;47.032;8.310;2023-05-19T13:07:57;14.20;;;7.28;;
46084;SDS011;31823;47.032;8.310;2023-05-19T13:10:23;7.43;;;5.82;;
46084;SDS011;31823;47.032;8.310;2023-05-19T13:12:53;14.82;;;9.05;;
46084;SDS011;31823;47.032;8.310;2023-05-19T13:15:21;13.25;;;8.40;;
46084;SDS011;31823;47.032;8.310;2023-05-19T13:17:48;11.90;;;7.82;;
46084;SDS011;31823;47.032;8.310;2023-05-19T13:20:13;8.55;;;6.50;;
46084;SDS011;31823;47.032;8.310;2023-05-19T13:22:39;9.80;;;7.20;;
46084;SDS011;31823;47.032;8.310;2023-05-19T13:25:05;8.50;;;5.63;;
46084;SDS011;31823;47.032;8.310;2023-05-19T13:27:31;8.82;;;5.55;;
46084;SDS011;31823;47.032;8.310;2023-05-19T13:29:57;10.85;;;6.13;;
46084;SDS011;31823;47.032;8.310;2023-05-19T13:32:22;10.90;;;6.47;;
46084;SDS011;31823;47.032;8.310;2023-05-19T13:34:48;8.75;;;5.70;;
46084;SDS011;31823;47.032;8.310;2023-05-19T13:37:14;10.18;;;6.35;;
46084;SDS011;31823;47.032;8.310;2023-05-19T13:39:39;11.23;;;7.15;;
46084;SDS011;31823;47.032;8.310;2023-05-19T13:42:05;12.88;;;8.48;;
46084;SDS011;31823;47.032;8.310;2023-05-19T13:44:31;9.90;;;7.38;;
46084;SDS011;31823;47.032;8.310;2023-05-19T13:46:56;14.70;;;7.75;;
46084;SDS011;31823;47.032;8.310;2023-05-19T13:49:22;10.77;;;7.15;;
46084;SDS011;31823;47.032;8.310;2023-05-19T13:51:48;10.35;;;6.85;;
46084;SDS011;31823;47.032;8.310;2023-05-19T13:54:14;8.98;;;7.05;;
46084;SDS011;31823;47.032;8.310;2023-05-19T13:56:40;11.43;;;7.13;;
46084;SDS011;31823;47.032;8.310;2023-05-19T13:59:07;10.77;;;5.88;;
46084;SDS011;31823;47.032;8.310;2023-05-19T14:01:32;9.77;;;5.53;;
46084;SDS011;31823;47.032;8.310;2023-05-19T14:03:58;9.02;;;6.40;;
46084;SDS011;31823;47.032;8.310;2023-05-19T14:06:23;11.35;;;6.05;;
46084;SDS011;31823;47.032;8.310;2023-05-19T14:08:49;7.85;;;5.85;;
46084;SDS011;31823;47.032;8.310;2023-05-19T14:11:18;12.60;;;6.47;;
46084;SDS011;31823;47.032;8.310;2023-05-19T14:13:46;6.60;;;5.20;;
46084;SDS011;31823;47.032;8.310;2023-05-19T14:16:13;9.23;;;5.70;;
46084;SDS011;31823;47.032;8.310;2023-05-19T14:18:38;6.82;;;5.65;;
46084;SDS011;31823;47.032;8.310;2023-05-19T14:21:04;9.57;;;6.70;;
46084;SDS011;31823;47.032;8.310;2023-05-19T14:23:30;7.32;;;5.65;;
46084;SDS011;31823;47.032;8.310;2023-05-19T14:25:56;9.32;;;5.63;;
46084;SDS011;31823;47.032;8.310;2023-05-19T14:28:21;8.55;;;5.60;;
46084;SDS011;31823;47.032;8.310;2023-05-19T14:30:47;9.05;;;5.55;;
46084;SDS011;31823;47.032;8.310;2023-05-19T14:33:12;9.02;;;6.15;;
46084;SDS011;31823;47.032;8.310;2023-05-19T14:35:40;9.63;;;5.60;;
46084;SDS011;31823;47.032;8.310;2023-05-19T14:38:06;9.95;;;6.57;;
46084;SDS011;31823;47.032;8.310;2023-05-19T14:40:32;10.20;;;7.20;;
46084;SDS011;31823;47.032;8.310;2023-05-19T14:43:00;9.05;;;6.15;;
46084;SDS011;31823;47.032;8.310;2023-05-19T14:45:25;9.13;;;6.05;;
46084;SDS011;31823;47.032;8.310;2023-05-19T14:47:51;9.27;;;6.90;;
46084;SDS011;31823;47.032;8.310;2023-05-19T14:50:16;8.48;;;5.85;;
46084;SDS011;31823;47.032;8.310;2023-05-19T14:52:42;13.27;;;9.20;;
46084;SDS011;31823;47.032;8.310;2023-05-19T14:55:08;9.13;;;6.78;;
46084;SDS011;31823;47.032;8.310;2023-05-19T14:57:34;12.35;;;7.47;;
46084;SDS011;31823;47.032;8.310;2023-05-19T14:59:59;9.02;;;6.90;;
46084;SDS011;31823;47.032;8.310;2023-05-19T15:02:25;11.63;;;7.90;;
46084;SDS011;31823;47.032;8.310;2023-05-19T15:04:50;11.23;;;6.82;;
46084;SDS011;31823;47.032;8.310;2023-05-19T15:07:16;9.02;;;6.80;;
46084;SDS011;31823;47.032;8.310;2023-05-19T15:09:42;12.27;;;7.95;;
46084;SDS011;31823;47.032;8.310;2023-05-19T15:12:07;11.07;;;7.70;;
46084;SDS011;31823;47.032;8.310;2023-05-19T15:14:33;10.05;;;5.90;;
46084;SDS011;31823;47.032;8.310;2023-05-19T15:16:59;10.20;;;5.78;;
46084;SDS011;31823;47.032;8.310;2023-05-19T15:19:25;10.85;;;7.63;;